createdAt,value
2022-08-17T00:03:33.223Z,5.55
2022-08-17T00:08:33.867Z,5.82
2022-08-17T00:13:36.169Z,5.78
2022-08-17T00:18:58.327Z,6.18
2022-08-17T00:23:56.139Z,6.15
2022-08-17T00:28:57.915Z,5.75
2022-08-17T00:33:56.673Z,5.82
2022-08-17T00:38:58.062Z,6.00
2022-08-17T00:44:00.853Z,6.10
2022-08-17T00:48:59.687Z,5.97
2022-08-17T00:54:08.101Z,5.65
2022-08-17T00:59:07.075Z,6.10
2022-08-17T01:04:06.691Z,5.93
2022-08-17T01:09:08.856Z,5.63
2022-08-17T01:14:10.427Z,6.97
2022-08-17T01:19:20.335Z,6.72
2022-08-17T01:24:19.359Z,6.05
2022-08-17T01:29:20.840Z,6.13
2022-08-17T01:34:22.256Z,6.43
2022-08-17T01:39:44.706Z,6.57
2022-08-17T01:44:46.929Z,5.97
2022-08-17T01:49:48.192Z,5.90
2022-08-17T01:54:49.680Z,6.32
2022-08-17T01:59:49.894Z,6.22
2022-08-17T02:04:50.793Z,6.55
2022-08-17T02:09:52.943Z,6.78
2022-08-17T02:19:57.768Z,5.65
2022-08-17T02:25:02.329Z,6.00
2022-08-17T02:30:00.961Z,5.95
2022-08-17T02:35:01.611Z,6.05
2022-08-17T02:40:03.227Z,5.88
2022-08-17T02:45:07.834Z,6.20
2022-08-17T02:50:07.913Z,6.13
2022-08-17T02:55:16.277Z,5.90
2022-08-17T03:00:23.905Z,6.45
2022-08-17T03:05:26.490Z,5.70
2022-08-17T03:10:25.742Z,6.60
2022-08-17T03:15:30.682Z,6.22
2022-08-17T03:20:31.970Z,6.38
2022-08-17T03:25:34.793Z,5.75
2022-08-17T03:30:37.046Z,6.57
2022-08-17T03:35:40.641Z,7.32
2022-08-17T03:40:56.514Z,6.25
2022-08-17T03:46:28.369Z,6.22
2022-08-17T03:51:54.938Z,6.93
2022-08-17T03:57:06.517Z,7.72
2022-08-17T04:02:11.058Z,7.07
2022-08-17T04:07:10.867Z,6.72
2022-08-17T04:12:09.790Z,5.88
2022-08-17T04:17:07.968Z,7.25
2022-08-17T04:22:32.024Z,6.75
2022-08-17T04:27:43.663Z,7.90
2022-08-17T04:33:04.150Z,8.13
2022-08-17T04:38:18.770Z,7.43
2022-08-17T04:43:20.434Z,7.85
2022-08-17T04:48:21.304Z,7.90
2022-08-17T04:53:20.101Z,7.82
2022-08-17T04:58:19.716Z,7.60
2022-08-17T05:03:21.157Z,7.38
2022-08-17T05:08:22.968Z,6.85
2022-08-17T05:13:24.711Z,6.30
2022-08-17T05:18:24.557Z,6.18
2022-08-17T05:23:25.333Z,6.07
2022-08-17T05:28:27.402Z,5.80
2022-08-17T05:33:33.690Z,5.70
2022-08-17T05:38:35.558Z,5.35
2022-08-17T05:43:37.951Z,6.05
2022-08-17T05:48:48.329Z,6.40
2022-08-17T05:53:52.316Z,6.10
2022-08-17T05:59:27.208Z,6.13
2022-08-17T06:04:51.434Z,5.57
2022-08-17T06:10:09.063Z,5.80
2022-08-17T06:15:33.527Z,5.40
2022-08-17T06:20:54.086Z,5.97
2022-08-17T06:26:01.622Z,7.05
2022-08-17T06:31:07.032Z,6.35
2022-08-17T06:36:17.818Z,6.97
2022-08-17T06:41:24.619Z,6.20
2022-08-17T06:46:43.129Z,6.60
2022-08-17T06:52:00.922Z,6.10
2022-08-17T06:57:29.134Z,6.07
2022-08-17T07:02:53.181Z,5.63
2022-08-17T07:08:20.886Z,5.13
2022-08-17T07:13:38.333Z,5.53
2022-08-17T07:18:36.681Z,5.45
2022-08-17T07:24:29.281Z,5.45
2022-08-17T07:29:33.239Z,5.28
2022-08-17T07:34:40.046Z,4.97
2022-08-17T07:40:15.278Z,5.00
2022-08-17T07:45:20.272Z,5.13
2022-08-17T07:50:29.602Z,5.45
2022-08-17T07:55:29.980Z,4.78
2022-08-17T08:00:32.389Z,4.97
2022-08-17T08:05:50.074Z,4.85
2022-08-17T08:11:04.735Z,5.10
2022-08-17T08:16:35.648Z,4.80
2022-08-17T08:21:55.206Z,5.55
2022-08-17T08:27:28.116Z,5.65
2022-08-17T08:32:43.312Z,5.20
2022-08-17T08:37:47.119Z,4.53
2022-08-17T08:43:04.165Z,4.93
2022-08-17T08:48:12.718Z,4.68
2022-08-17T08:53:33.144Z,4.40
2022-08-17T08:59:15.191Z,4.63
2022-08-17T09:05:12.781Z,5.05
2022-08-17T09:10:28.213Z,4.70
2022-08-17T09:15:32.278Z,4.43
2022-08-17T09:20:50.673Z,4.93
2022-08-17T09:26:13.116Z,4.70
2022-08-17T09:31:17.783Z,4.70
2022-08-17T09:36:27.391Z,4.90
2022-08-17T09:41:57.305Z,4.70
2022-08-17T09:47:36.603Z,4.68
2022-08-17T09:52:38.455Z,5.05
2022-08-17T09:57:45.238Z,4.80
2022-08-17T10:02:54.285Z,5.20
2022-08-17T10:08:16.606Z,4.75
2022-08-17T10:13:47.221Z,4.68
2022-08-17T10:19:16.430Z,4.43
2022-08-17T10:25:21.197Z,4.10
2022-08-17T10:30:31.711Z,4.50
2022-08-17T10:35:34.171Z,4.20
2022-08-17T10:40:46.006Z,4.65
2022-08-17T10:46:09.532Z,4.23
2022-08-17T10:51:40.725Z,3.40
2022-08-17T10:56:47.327Z,3.60
2022-08-17T11:02:04.455Z,3.53
2022-08-17T11:07:28.093Z,3.63
2022-08-17T11:12:39.843Z,3.47
2022-08-17T11:17:52.756Z,3.33
2022-08-17T11:23:07.769Z,3.33
2022-08-17T11:28:40.211Z,3.10
2022-08-17T11:33:50.222Z,2.92
2022-08-17T11:39:23.347Z,2.63
2022-08-17T11:44:32.142Z,3.08
2022-08-17T11:50:37.839Z,2.78
2022-08-17T11:56:19.619Z,2.92
2022-08-17T12:01:29.561Z,2.67
2022-08-17T12:06:50.713Z,2.53
2022-08-17T12:12:12.818Z,2.83
2022-08-17T12:17:39.713Z,2.60
2022-08-17T12:23:01.433Z,2.78
2022-08-17T12:28:04.815Z,2.63
2022-08-17T12:33:28.042Z,2.75
2022-08-17T12:38:33.180Z,2.60
2022-08-17T12:43:33.875Z,3.05
2022-08-17T12:48:58.780Z,2.67
2022-08-17T12:54:03.441Z,3.00
2022-08-17T12:59:02.443Z,2.90
2022-08-17T13:04:07.805Z,2.80
2022-08-17T13:09:14.464Z,2.90
2022-08-17T13:14:12.528Z,8.23
2022-08-17T13:19:18.971Z,2.80
2022-08-17T13:24:38.760Z,2.90
2022-08-17T13:29:54.635Z,2.85
2022-08-17T13:35:15.085Z,2.78
2022-08-17T13:40:20.251Z,2.50
2022-08-17T13:45:36.103Z,3.03
2022-08-17T13:50:45.813Z,3.10
2022-08-17T13:56:01.860Z,3.00
2022-08-17T14:01:36.338Z,3.78
2022-08-17T14:06:52.862Z,4.00
2022-08-17T14:11:57.089Z,3.65
2022-08-17T14:16:57.708Z,4.45
2022-08-17T14:22:02.152Z,4.13
2022-08-17T14:27:01.788Z,5.03
2022-08-17T14:32:05.722Z,3.55
2022-08-17T14:37:07.079Z,3.03
2022-08-17T14:42:05.665Z,3.37
2022-08-17T14:47:04.638Z,2.60
2022-08-17T14:52:03.736Z,2.88
2022-08-17T14:57:23.360Z,2.67
2022-08-17T15:02:31.118Z,2.90
2022-08-17T15:07:37.691Z,2.97
2022-08-17T15:12:45.844Z,2.58
2022-08-17T15:17:48.895Z,2.58
2022-08-17T15:28:11.227Z,2.60
2022-08-17T15:33:29.979Z,3.20
2022-08-17T15:38:36.925Z,4.60
2022-08-17T15:43:39.028Z,3.72
2022-08-17T15:49:12.361Z,2.80
2022-08-17T16:00:31.282Z,3.20
2022-08-17T16:06:41.333Z,12.52
2022-08-17T16:11:30.027Z,5.25
2022-08-17T16:16:31.507Z,4.83
2022-08-17T16:21:31.168Z,4.75
2022-08-17T16:26:47.396Z,3.72
2022-08-17T16:31:49.301Z,3.95
2022-08-17T16:37:02.996Z,3.90
2022-08-17T16:42:06.241Z,3.78
2022-08-17T16:52:32.567Z,3.70
2022-08-17T17:03:22.478Z,3.72
2022-08-17T17:08:38.414Z,3.70
2022-08-17T17:14:21.144Z,2.92
2022-08-17T17:19:35.096Z,3.50
2022-08-17T17:24:49.959Z,3.30
2022-08-17T17:29:58.340Z,3.78
2022-08-17T17:35:02.346Z,3.80
2022-08-17T17:40:13.103Z,3.80
2022-08-17T17:45:33.645Z,3.75
2022-08-17T17:51:10.986Z,4.05
2022-08-17T17:56:57.186Z,3.13
2022-08-17T18:02:00.511Z,2.90
2022-08-17T18:07:13.691Z,3.10
2022-08-17T18:12:26.191Z,3.58
2022-08-17T18:17:30.044Z,3.38
2022-08-17T18:22:31.295Z,3.83
2022-08-17T18:27:34.603Z,3.20
2022-08-17T18:32:41.356Z,4.35
2022-08-17T18:37:55.859Z,3.33
2022-08-17T18:42:59.769Z,3.13
2022-08-17T18:48:00.961Z,3.28
2022-08-17T18:53:34.203Z,3.00
2022-08-17T18:58:51.070Z,3.28
2022-08-17T19:03:49.584Z,2.80
2022-08-17T19:08:50.393Z,2.92
2022-08-17T19:14:21.495Z,3.70
2022-08-17T19:19:36.780Z,3.38
2022-08-17T19:24:47.961Z,4.00
2022-08-17T19:29:52.533Z,3.25
2022-08-17T19:34:54.417Z,3.22
2022-08-17T19:40:24.517Z,3.10
2022-08-17T19:45:50.330Z,3.08
2022-08-17T19:50:57.552Z,3.60
2022-08-17T19:55:58.691Z,3.60
2022-08-17T20:00:58.850Z,3.65
2022-08-17T20:06:12.705Z,4.55
2022-08-17T20:11:26.802Z,4.30
2022-08-17T20:16:24.982Z,3.70
2022-08-17T20:21:49.732Z,3.95
2022-08-17T20:26:58.114Z,3.50
2022-08-17T20:32:01.279Z,3.42
2022-08-17T20:37:01.105Z,4.00
2022-08-17T20:42:25.796Z,3.88
2022-08-17T20:47:47.026Z,3.88
2022-08-17T20:53:03.164Z,4.10
2022-08-17T20:58:17.401Z,3.47
2022-08-17T21:03:32.236Z,3.78
2022-08-17T21:09:13.686Z,3.25
2022-08-17T21:14:19.946Z,3.42
2022-08-17T21:20:00.203Z,3.13
2022-08-17T21:25:35.328Z,3.40
2022-08-17T21:30:32.757Z,3.85
2022-08-17T21:36:01.593Z,3.53
2022-08-17T21:41:01.792Z,3.20
2022-08-17T21:46:05.150Z,3.00
2022-08-17T21:56:07.621Z,3.85
2022-08-17T22:01:30.560Z,3.35
2022-08-17T22:06:31.231Z,4.35
2022-08-17T22:11:29.792Z,3.17
2022-08-17T22:16:30.869Z,3.17
2022-08-17T22:21:28.678Z,3.40
2022-08-17T22:26:49.964Z,3.30
2022-08-17T22:31:57.730Z,3.55
2022-08-17T22:37:26.714Z,3.22
2022-08-17T22:42:26.257Z,3.38
2022-08-17T22:47:32.485Z,3.38
2022-08-17T22:53:22.794Z,3.55
2022-08-17T22:58:44.183Z,3.47
2022-08-17T23:04:13.165Z,3.50
2022-08-17T23:09:15.110Z,3.40
2022-08-17T23:14:14.691Z,4.28
2022-08-17T23:19:21.759Z,3.50
2022-08-17T23:24:24.948Z,5.30
2022-08-17T23:29:32.752Z,4.65
2022-08-17T23:34:31.368Z,4.90
2022-08-17T23:39:29.793Z,5.53
2022-08-17T23:44:31.823Z,5.20
2022-08-17T23:49:30.086Z,5.43
2022-08-17T23:54:49.260Z,4.90
2022-08-17T23:59:51.238Z,5.00
